sensor_id;sensor_type;location;lat;lon;timestamp;P1;durP1;ratioP1;P2;durP2;ratioP2
22034;SDS011;11181;51.002;4.356;2023-05-10T00:01:42;10.57;;;6.97;;
22034;SDS011;11181;51.002;4.356;2023-05-10T00:04:09;16.30;;;6.47;;
22034;SDS011;11181;51.002;4.356;2023-05-10T00:06:35;9.97;;;5.90;;
22034;SDS011;11181;51.002;4.356;2023-05-10T00:09:04;11.13;;;5.70;;
22034;SDS011;11181;51.002;4.356;2023-05-10T00:11:31;10.20;;;6.33;;
22034;SDS011;11181;51.002;4.356;2023-05-10T00:13:58;10.20;;;5.90;;
22034;SDS011;11181;51.002;4.356;2023-05-10T00:16:24;10.80;;;6.03;;
22034;SDS011;11181;51.002;4.356;2023-05-10T00:18:51;11.43;;;5.47;;
22034;SDS011;11181;51.002;4.356;2023-05-10T00:21:18;11.53;;;5.77;;
22034;SDS011;11181;51.002;4.356;2023-05-10T00:23:45;9.90;;;6.43;;
22034;SDS011;11181;51.002;4.356;2023-05-10T00:26:13;8.90;;;5.80;;
22034;SDS011;11181;51.002;4.356;2023-05-10T00:28:41;9.00;;;5.70;;
22034;SDS011;11181;51.002;4.356;2023-05-10T00:31:08;10.30;;;6.13;;
22034;SDS011;11181;51.002;4.356;2023-05-10T00:33:35;8.07;;;5.30;;
22034;SDS011;11181;51.002;4.356;2023-05-10T00:36:02;9.70;;;6.67;;
22034;SDS011;11181;51.002;4.356;2023-05-10T00:38:32;13.27;;;5.70;;
22034;SDS011;11181;51.002;4.356;2023-05-10T00:40:59;9.80;;;5.67;;
22034;SDS011;11181;51.002;4.356;2023-05-10T00:43:28;7.93;;;5.43;;
22034;SDS011;11181;51.002;4.356;2023-05-10T00:45:55;11.67;;;5.73;;
22034;SDS011;11181;51.002;4.356;2023-05-10T00:48:22;9.50;;;5.63;;
22034;SDS011;11181;51.002;4.356;2023-05-10T00:50:49;12.17;;;5.27;;
22034;SDS011;11181;51.002;4.356;2023-05-10T00:53:16;12.83;;;6.33;;
22034;SDS011;11181;51.002;4.356;2023-05-10T00:55:43;7.57;;;5.27;;
22034;SDS011;11181;51.002;4.356;2023-05-10T00:58:10;10.20;;;6.73;;
22034;SDS011;11181;51.002;4.356;2023-05-10T01:00:39;11.03;;;6.17;;
22034;SDS011;11181;51.002;4.356;2023-05-10T01:03:09;11.07;;;6.43;;
22034;SDS011;11181;51.002;4.356;2023-05-10T01:05:36;11.80;;;6.37;;
22034;SDS011;11181;51.002;4.356;2023-05-10T01:08:03;11.13;;;6.13;;
22034;SDS011;11181;51.002;4.356;2023-05-10T01:10:30;8.13;;;5.80;;
22034;SDS011;11181;51.002;4.356;2023-05-10T01:12:58;8.60;;;6.80;;
22034;SDS011;11181;51.002;4.356;2023-05-10T01:15:25;14.67;;;7.10;;
22034;SDS011;11181;51.002;4.356;2023-05-10T01:17:54;10.37;;;6.07;;
22034;SDS011;11181;51.002;4.356;2023-05-10T01:20:22;10.03;;;6.50;;
22034;SDS011;11181;51.002;4.356;2023-05-10T01:25:53;8.53;;;6.03;;
22034;SDS011;11181;51.002;4.356;2023-05-10T01:28:58;8.97;;;6.67;;
22034;SDS011;11181;51.002;4.356;2023-05-10T01:32:11;12.90;;;6.90;;
22034;SDS011;11181;51.002;4.356;2023-05-10T01:34:54;9.80;;;7.07;;
22034;SDS011;11181;51.002;4.356;2023-05-10T01:37:28;11.27;;;6.20;;
22034;SDS011;11181;51.002;4.356;2023-05-10T01:40:00;11.13;;;7.00;;
22034;SDS011;11181;51.002;4.356;2023-05-10T01:42:36;12.30;;;7.37;;
22034;SDS011;11181;51.002;4.356;2023-05-10T01:45:11;11.20;;;7.30;;
22034;SDS011;11181;51.002;4.356;2023-05-10T01:47:44;12.30;;;7.07;;
22034;SDS011;11181;51.002;4.356;2023-05-10T01:50:16;12.77;;;7.60;;
22034;SDS011;11181;51.002;4.356;2023-05-10T01:52:47;13.20;;;8.07;;
22034;SDS011;11181;51.002;4.356;2023-05-10T01:55:20;16.03;;;8.03;;
22034;SDS011;11181;51.002;4.356;2023-05-10T01:57:51;13.67;;;9.00;;
22034;SDS011;11181;51.002;4.356;2023-05-10T02:00:23;12.73;;;8.00;;
22034;SDS011;11181;51.002;4.356;2023-05-10T02:02:52;15.17;;;8.73;;
22034;SDS011;11181;51.002;4.356;2023-05-10T02:05:20;13.87;;;8.83;;
22034;SDS011;11181;51.002;4.356;2023-05-10T02:07:48;13.53;;;8.87;;
22034;SDS011;11181;51.002;4.356;2023-05-10T02:10:17;15.17;;;8.07;;
22034;SDS011;11181;51.002;4.356;2023-05-10T02:12:46;17.33;;;8.77;;
22034;SDS011;11181;51.002;4.356;2023-05-10T02:15:15;17.97;;;9.13;;
22034;SDS011;11181;51.002;4.356;2023-05-10T02:17:46;15.93;;;8.53;;
22034;SDS011;11181;51.002;4.356;2023-05-10T02:20:15;14.17;;;9.30;;
22034;SDS011;11181;51.002;4.356;2023-05-10T02:22:44;12.27;;;8.73;;
22034;SDS011;11181;51.002;4.356;2023-05-10T02:25:14;16.43;;;9.70;;
22034;SDS011;11181;51.002;4.356;2023-05-10T02:27:43;13.50;;;9.10;;
22034;SDS011;11181;51.002;4.356;2023-05-10T02:30:12;16.20;;;10.60;;
22034;SDS011;11181;51.002;4.356;2023-05-10T02:32:40;14.50;;;9.60;;
22034;SDS011;11181;51.002;4.356;2023-05-10T02:35:08;15.73;;;9.17;;
22034;SDS011;11181;51.002;4.356;2023-05-10T02:37:38;16.40;;;10.13;;
22034;SDS011;11181;51.002;4.356;2023-05-10T02:40:06;16.30;;;10.33;;
22034;SDS011;11181;51.002;4.356;2023-05-10T02:42:35;19.63;;;12.40;;
22034;SDS011;11181;51.002;4.356;2023-05-10T02:45:05;19.80;;;10.73;;
22034;SDS011;11181;51.002;4.356;2023-05-10T02:47:37;21.57;;;11.90;;
22034;SDS011;11181;51.002;4.356;2023-05-10T02:50:04;25.80;;;13.80;;
22034;SDS011;11181;51.002;4.356;2023-05-10T02:52:36;17.90;;;12.07;;
22034;SDS011;11181;51.002;4.356;2023-05-10T02:55:07;24.90;;;13.63;;
22034;SDS011;11181;51.002;4.356;2023-05-10T02:57:38;20.47;;;13.10;;
22034;SDS011;11181;51.002;4.356;2023-05-10T03:00:09;20.97;;;13.43;;
22034;SDS011;11181;51.002;4.356;2023-05-10T03:02:37;25.53;;;13.47;;
22034;SDS011;11181;51.002;4.356;2023-05-10T03:05:04;22.83;;;13.47;;
22034;SDS011;11181;51.002;4.356;2023-05-10T03:07:32;24.83;;;14.50;;
22034;SDS011;11181;51.002;4.356;2023-05-10T03:10:01;19.77;;;11.83;;
22034;SDS011;11181;51.002;4.356;2023-05-10T03:12:32;23.90;;;13.17;;
22034;SDS011;11181;51.002;4.356;2023-05-10T03:15:10;22.77;;;13.90;;
22034;SDS011;11181;51.002;4.356;2023-05-10T03:17:43;24.67;;;13.00;;
22034;SDS011;11181;51.002;4.356;2023-05-10T03:20:16;23.40;;;13.40;;
22034;SDS011;11181;51.002;4.356;2023-05-10T03:22:49;22.30;;;13.47;;
22034;SDS011;11181;51.002;4.356;2023-05-10T03:25:19;25.47;;;13.87;;
22034;SDS011;11181;51.002;4.356;2023-05-10T03:27:48;27.20;;;14.83;;
22034;SDS011;11181;51.002;4.356;2023-05-10T03:30:15;27.60;;;15.80;;
22034;SDS011;11181;51.002;4.356;2023-05-10T03:32:43;26.07;;;15.07;;
22034;SDS011;11181;51.002;4.356;2023-05-10T03:35:10;26.50;;;14.53;;
22034;SDS011;11181;51.002;4.356;2023-05-10T03:37:39;25.43;;;14.63;;
22034;SDS011;11181;51.002;4.356;2023-05-10T03:40:06;24.53;;;15.10;;
22034;SDS011;11181;51.002;4.356;2023-05-10T03:42:35;27.67;;;15.87;;
22034;SDS011;11181;51.002;4.356;2023-05-10T03:45:02;30.03;;;15.00;;
22034;SDS011;11181;51.002;4.356;2023-05-10T03:47:30;24.47;;;14.93;;
22034;SDS011;11181;51.002;4.356;2023-05-10T03:49:57;25.87;;;15.40;;
22034;SDS011;11181;51.002;4.356;2023-05-10T03:52:24;25.23;;;14.63;;
22034;SDS011;11181;51.002;4.356;2023-05-10T03:54:51;25.00;;;14.93;;
22034;SDS011;11181;51.002;4.356;2023-05-10T03:57:18;23.57;;;14.33;;
22034;SDS011;11181;51.002;4.356;2023-05-10T03:59:46;22.93;;;13.63;;
22034;SDS011;11181;51.002;4.356;2023-05-10T04:02:13;29.07;;;14.60;;
22034;SDS011;11181;51.002;4.356;2023-05-10T04:04:40;25.13;;;15.03;;
22034;SDS011;11181;51.002;4.356;2023-05-10T04:07:06;22.03;;;13.40;;
22034;SDS011;11181;51.002;4.356;2023-05-10T04:09:35;24.90;;;15.10;;
22034;SDS011;11181;51.002;4.356;2023-05-10T04:12:02;24.07;;;13.93;;
22034;SDS011;11181;51.002;4.356;2023-05-10T04:14:29;26.07;;;16.67;;
22034;SDS011;11181;51.002;4.356;2023-05-10T04:16:57;25.03;;;13.83;;
22034;SDS011;11181;51.002;4.356;2023-05-10T04:19:28;21.73;;;13.57;;
22034;SDS011;11181;51.002;4.356;2023-05-10T04:21:55;21.90;;;14.80;;
22034;SDS011;11181;51.002;4.356;2023-05-10T04:24:22;24.50;;;13.70;;
22034;SDS011;11181;51.002;4.356;2023-05-10T04:26:50;24.70;;;13.73;;
22034;SDS011;11181;51.002;4.356;2023-05-10T04:29:17;27.27;;;15.13;;
22034;SDS011;11181;51.002;4.356;2023-05-10T04:31:44;21.33;;;13.90;;
22034;SDS011;11181;51.002;4.356;2023-05-10T04:34:12;22.80;;;14.27;;
22034;SDS011;11181;51.002;4.356;2023-05-10T04:36:39;26.40;;;14.00;;
22034;SDS011;11181;51.002;4.356;2023-05-10T04:39:06;24.20;;;13.80;;
22034;SDS011;11181;51.002;4.356;2023-05-10T04:41:34;21.60;;;14.53;;
22034;SDS011;11181;51.002;4.356;2023-05-10T04:44:01;26.50;;;15.40;;
22034;SDS011;11181;51.002;4.356;2023-05-10T04:46:28;23.10;;;14.40;;
22034;SDS011;11181;51.002;4.356;2023-05-10T04:48:55;25.07;;;15.03;;
22034;SDS011;11181;51.002;4.356;2023-05-10T04:51:23;27.00;;;15.73;;
22034;SDS011;11181;51.002;4.356;2023-05-10T04:53:50;22.33;;;13.20;;
22034;SDS011;11181;51.002;4.356;2023-05-10T04:56:17;21.57;;;13.67;;
22034;SDS011;11181;51.002;4.356;2023-05-10T04:58:44;23.40;;;14.43;;
22034;SDS011;11181;51.002;4.356;2023-05-10T05:01:11;20.10;;;13.03;;
22034;SDS011;11181;51.002;4.356;2023-05-10T05:03:38;24.03;;;14.20;;
22034;SDS011;11181;51.002;4.356;2023-05-10T05:06:05;18.77;;;12.63;;
22034;SDS011;11181;51.002;4.356;2023-05-10T05:08:33;26.17;;;13.77;;
22034;SDS011;11181;51.002;4.356;2023-05-10T05:11:00;23.93;;;13.93;;
22034;SDS011;11181;51.002;4.356;2023-05-10T05:13:27;22.30;;;12.90;;
22034;SDS011;11181;51.002;4.356;2023-05-10T05:15:54;23.17;;;13.83;;
22034;SDS011;11181;51.002;4.356;2023-05-10T05:18:21;27.20;;;13.53;;
22034;SDS011;11181;51.002;4.356;2023-05-10T05:20:48;23.73;;;13.33;;
22034;SDS011;11181;51.002;4.356;2023-05-10T05:23:14;20.70;;;13.97;;
22034;SDS011;11181;51.002;4.356;2023-05-10T05:25:43;21.40;;;13.60;;
22034;SDS011;11181;51.002;4.356;2023-05-10T05:28:10;18.87;;;13.00;;
22034;SDS011;11181;51.002;4.356;2023-05-10T05:30:37;22.97;;;14.67;;
22034;SDS011;11181;51.002;4.356;2023-05-10T05:33:04;20.77;;;14.60;;
22034;SDS011;11181;51.002;4.356;2023-05-10T05:35:31;21.13;;;14.20;;
22034;SDS011;11181;51.002;4.356;2023-05-10T05:37:58;23.67;;;16.07;;
22034;SDS011;11181;51.002;4.356;2023-05-10T05:40:25;23.93;;;14.50;;
22034;SDS011;11181;51.002;4.356;2023-05-10T05:42:53;22.67;;;13.30;;
22034;SDS011;11181;51.002;4.356;2023-05-10T05:45:20;21.87;;;13.73;;
22034;SDS011;11181;51.002;4.356;2023-05-10T05:47:47;26.60;;;15.63;;
22034;SDS011;11181;51.002;4.356;2023-05-10T05:50:14;21.97;;;14.13;;
22034;SDS011;11181;51.002;4.356;2023-05-10T05:52:40;25.07;;;14.73;;
22034;SDS011;11181;51.002;4.356;2023-05-10T05:55:07;22.07;;;14.00;;
22034;SDS011;11181;51.002;4.356;2023-05-10T05:57:34;23.07;;;14.87;;
22034;SDS011;11181;51.002;4.356;2023-05-10T06:00:03;25.07;;;14.43;;
22034;SDS011;11181;51.002;4.356;2023-05-10T06:02:31;22.63;;;14.47;;
22034;SDS011;11181;51.002;4.356;2023-05-10T06:04:57;23.27;;;14.17;;
22034;SDS011;11181;51.002;4.356;2023-05-10T06:07:24;20.80;;;13.43;;
22034;SDS011;11181;51.002;4.356;2023-05-10T06:09:51;24.30;;;13.47;;
22034;SDS011;11181;51.002;4.356;2023-05-10T06:12:18;21.10;;;13.60;;
22034;SDS011;11181;51.002;4.356;2023-05-10T06:14:45;21.90;;;13.50;;
22034;SDS011;11181;51.002;4.356;2023-05-10T06:17:13;21.07;;;13.70;;
22034;SDS011;11181;51.002;4.356;2023-05-10T06:19:40;20.93;;;13.40;;
22034;SDS011;11181;51.002;4.356;2023-05-10T06:22:07;20.87;;;14.50;;
22034;SDS011;11181;51.002;4.356;2023-05-10T06:24:34;30.07;;;15.63;;
22034;SDS011;11181;51.002;4.356;2023-05-10T06:27:01;23.23;;;14.57;;
22034;SDS011;11181;51.002;4.356;2023-05-10T06:29:29;24.57;;;14.10;;
22034;SDS011;11181;51.002;4.356;2023-05-10T06:31:56;23.90;;;14.63;;
22034;SDS011;11181;51.002;4.356;2023-05-10T06:34:25;23.97;;;14.40;;
22034;SDS011;11181;51.002;4.356;2023-05-10T06:36:52;20.97;;;14.10;;
22034;SDS011;11181;51.002;4.356;2023-05-10T06:39:18;23.50;;;13.47;;
22034;SDS011;11181;51.002;4.356;2023-05-10T06:41:45;24.90;;;14.27;;
22034;SDS011;11181;51.002;4.356;2023-05-10T06:44:12;28.83;;;15.97;;
22034;SDS011;11181;51.002;4.356;2023-05-10T06:46:39;22.90;;;15.00;;
22034;SDS011;11181;51.002;4.356;2023-05-10T06:49:06;24.83;;;15.60;;
22034;SDS011;11181;51.002;4.356;2023-05-10T06:51:34;23.07;;;14.37;;
22034;SDS011;11181;51.002;4.356;2023-05-10T06:54:01;26.67;;;15.67;;
22034;SDS011;11181;51.002;4.356;2023-05-10T06:56:28;25.37;;;14.73;;
22034;SDS011;11181;51.002;4.356;2023-05-10T06:58:55;27.10;;;16.47;;
22034;SDS011;11181;51.002;4.356;2023-05-10T07:01:22;29.90;;;16.40;;
22034;SDS011;11181;51.002;4.356;2023-05-10T07:03:49;31.30;;;16.50;;
22034;SDS011;11181;51.002;4.356;2023-05-10T07:06:16;25.00;;;16.20;;
22034;SDS011;11181;51.002;4.356;2023-05-10T07:08:44;29.43;;;16.50;;
22034;SDS011;11181;51.002;4.356;2023-05-10T07:11:11;27.63;;;15.90;;
22034;SDS011;11181;51.002;4.356;2023-05-10T07:13:38;31.53;;;17.47;;
22034;SDS011;11181;51.002;4.356;2023-05-10T07:16:09;34.20;;;16.50;;
22034;SDS011;11181;51.002;4.356;2023-05-10T07:18:36;30.13;;;17.37;;
22034;SDS011;11181;51.002;4.356;2023-05-10T07:21:03;28.67;;;15.87;;
22034;SDS011;11181;51.002;4.356;2023-05-10T07:23:30;33.30;;;17.20;;
22034;SDS011;11181;51.002;4.356;2023-05-10T07:25:58;30.30;;;17.77;;
22034;SDS011;11181;51.002;4.356;2023-05-10T07:28:25;25.27;;;15.77;;
22034;SDS011;11181;51.002;4.356;2023-05-10T07:30:52;27.03;;;16.20;;
22034;SDS011;11181;51.002;4.356;2023-05-10T07:33:18;29.20;;;17.77;;
22034;SDS011;11181;51.002;4.356;2023-05-10T07:35:45;31.03;;;18.17;;
22034;SDS011;11181;51.002;4.356;2023-05-10T07:38:12;33.13;;;17.70;;
22034;SDS011;11181;51.002;4.356;2023-05-10T07:40:39;34.90;;;16.23;;
22034;SDS011;11181;51.002;4.356;2023-05-10T07:43:07;33.17;;;17.07;;
22034;SDS011;11181;51.002;4.356;2023-05-10T07:45:34;25.30;;;16.43;;
22034;SDS011;11181;51.002;4.356;2023-05-10T07:48:01;27.67;;;15.90;;
22034;SDS011;11181;51.002;4.356;2023-05-10T07:50:28;28.77;;;16.73;;
22034;SDS011;11181;51.002;4.356;2023-05-10T07:52:55;28.30;;;15.77;;
22034;SDS011;11181;51.002;4.356;2023-05-10T07:55:22;28.37;;;16.90;;
22034;SDS011;11181;51.002;4.356;2023-05-10T07:57:49;26.20;;;15.83;;
22034;SDS011;11181;51.002;4.356;2023-05-10T08:00:18;25.87;;;14.70;;
22034;SDS011;11181;51.002;4.356;2023-05-10T08:02:46;22.40;;;13.83;;
22034;SDS011;11181;51.002;4.356;2023-05-10T08:05:13;23.53;;;14.73;;
22034;SDS011;11181;51.002;4.356;2023-05-10T08:07:40;23.67;;;12.57;;
22034;SDS011;11181;51.002;4.356;2023-05-10T08:10:08;26.23;;;13.47;;
22034;SDS011;11181;51.002;4.356;2023-05-10T08:12:36;22.53;;;13.37;;
22034;SDS011;11181;51.002;4.356;2023-05-10T08:15:04;27.67;;;13.57;;
22034;SDS011;11181;51.002;4.356;2023-05-10T08:17:33;24.13;;;12.77;;
22034;SDS011;11181;51.002;4.356;2023-05-10T08:20:00;22.17;;;12.53;;
22034;SDS011;11181;51.002;4.356;2023-05-10T08:22:27;21.13;;;12.03;;
22034;SDS011;11181;51.002;4.356;2023-05-10T08:24:54;21.73;;;12.60;;
22034;SDS011;11181;51.002;4.356;2023-05-10T08:27:21;19.23;;;11.60;;
22034;SDS011;11181;51.002;4.356;2023-05-10T08:29:48;20.93;;;11.13;;
22034;SDS011;11181;51.002;4.356;2023-05-10T08:32:14;15.47;;;10.70;;
22034;SDS011;11181;51.002;4.356;2023-05-10T08:34:43;21.07;;;10.73;;
22034;SDS011;11181;51.002;4.356;2023-05-10T08:37:09;17.23;;;9.63;;
22034;SDS011;11181;51.002;4.356;2023-05-10T08:39:38;17.80;;;10.10;;
22034;SDS011;11181;51.002;4.356;2023-05-10T08:42:05;20.17;;;9.67;;
22034;SDS011;11181;51.002;4.356;2023-05-10T08:44:34;17.40;;;9.67;;
22034;SDS011;11181;51.002;4.356;2023-05-10T08:47:04;20.63;;;10.77;;
22034;SDS011;11181;51.002;4.356;2023-05-10T08:49:31;16.93;;;10.07;;
22034;SDS011;11181;51.002;4.356;2023-05-10T08:52:02;16.23;;;9.60;;
22034;SDS011;11181;51.002;4.356;2023-05-10T08:54:31;17.57;;;8.93;;
22034;SDS011;11181;51.002;4.356;2023-05-10T08:56:58;17.63;;;9.23;;
22034;SDS011;11181;51.002;4.356;2023-05-10T08:59:25;17.33;;;8.63;;
22034;SDS011;11181;51.002;4.356;2023-05-10T09:01:52;15.83;;;8.90;;
22034;SDS011;11181;51.002;4.356;2023-05-10T09:04:21;16.40;;;8.60;;
22034;SDS011;11181;51.002;4.356;2023-05-10T09:06:49;14.67;;;9.17;;
22034;SDS011;11181;51.002;4.356;2023-05-10T09:09:18;16.20;;;8.87;;
22034;SDS011;11181;51.002;4.356;2023-05-10T09:11:46;17.93;;;9.50;;
22034;SDS011;11181;51.002;4.356;2023-05-10T09:14:14;14.70;;;7.73;;
22034;SDS011;11181;51.002;4.356;2023-05-10T09:16:42;17.00;;;9.20;;
22034;SDS011;11181;51.002;4.356;2023-05-10T09:19:09;15.63;;;8.67;;
22034;SDS011;11181;51.002;4.356;2023-05-10T09:21:36;12.53;;;8.03;;
22034;SDS011;11181;51.002;4.356;2023-05-10T09:24:04;16.87;;;7.80;;
22034;SDS011;11181;51.002;4.356;2023-05-10T09:26:33;16.97;;;8.43;;
22034;SDS011;11181;51.002;4.356;2023-05-10T09:29:00;14.33;;;8.30;;
22034;SDS011;11181;51.002;4.356;2023-05-10T09:31:44;12.97;;;8.37;;
22034;SDS011;11181;51.002;4.356;2023-05-10T09:34:15;15.00;;;8.43;;
22034;SDS011;11181;51.002;4.356;2023-05-10T09:36:53;9.47;;;6.97;;
22034;SDS011;11181;51.002;4.356;2023-05-10T09:39:25;14.30;;;7.83;;
22034;SDS011;11181;51.002;4.356;2023-05-10T09:41:59;12.93;;;7.47;;
22034;SDS011;11181;51.002;4.356;2023-05-10T09:44:28;18.80;;;8.73;;
22034;SDS011;11181;51.002;4.356;2023-05-10T09:46:55;13.53;;;8.43;;
22034;SDS011;11181;51.002;4.356;2023-05-10T09:49:22;8.43;;;6.93;;
22034;SDS011;11181;51.002;4.356;2023-05-10T09:51:59;11.67;;;7.80;;
22034;SDS011;11181;51.002;4.356;2023-05-10T09:54:27;14.27;;;8.50;;
22034;SDS011;11181;51.002;4.356;2023-05-10T09:56:54;10.67;;;7.63;;
22034;SDS011;11181;51.002;4.356;2023-05-10T09:59:23;12.70;;;8.03;;
22034;SDS011;11181;51.002;4.356;2023-05-10T10:01:51;12.03;;;7.83;;
22034;SDS011;11181;51.002;4.356;2023-05-10T10:04:19;9.10;;;7.27;;
22034;SDS011;11181;51.002;4.356;2023-05-10T10:06:47;13.57;;;8.00;;
22034;SDS011;11181;51.002;4.356;2023-05-10T10:09:25;8.67;;;6.73;;
22034;SDS011;11181;51.002;4.356;2023-05-10T10:11:53;10.23;;;7.37;;
22034;SDS011;11181;51.002;4.356;2023-05-10T10:14:22;11.07;;;6.93;;
22034;SDS011;11181;51.002;4.356;2023-05-10T10:16:49;11.43;;;8.33;;
22034;SDS011;11181;51.002;4.356;2023-05-10T10:19:17;13.93;;;9.37;;
22034;SDS011;11181;51.002;4.356;2023-05-10T10:21:45;11.73;;;8.17;;
22034;SDS011;11181;51.002;4.356;2023-05-10T10:24:12;11.20;;;7.80;;
22034;SDS011;11181;51.002;4.356;2023-05-10T10:26:39;17.87;;;8.87;;
22034;SDS011;11181;51.002;4.356;2023-05-10T10:29:09;12.43;;;7.50;;
22034;SDS011;11181;51.002;4.356;2023-05-10T10:31:46;11.77;;;7.77;;
22034;SDS011;11181;51.002;4.356;2023-05-10T10:34:21;10.80;;;7.70;;
22034;SDS011;11181;51.002;4.356;2023-05-10T10:36:52;10.80;;;6.93;;
22034;SDS011;11181;51.002;4.356;2023-05-10T10:39:21;12.03;;;6.37;;
22034;SDS011;11181;51.002;4.356;2023-05-10T10:41:50;9.63;;;6.30;;
22034;SDS011;11181;51.002;4.356;2023-05-10T10:44:33;9.60;;;5.50;;
22034;SDS011;11181;51.002;4.356;2023-05-10T10:47:23;8.33;;;5.83;;
22034;SDS011;11181;51.002;4.356;2023-05-10T10:50:02;7.73;;;5.97;;
22034;SDS011;11181;51.002;4.356;2023-05-10T10:52:31;8.37;;;5.90;;
22034;SDS011;11181;51.002;4.356;2023-05-10T10:55:00;8.20;;;5.83;;
22034;SDS011;11181;51.002;4.356;2023-05-10T10:57:33;10.17;;;5.33;;
22034;SDS011;11181;51.002;4.356;2023-05-10T11:00:25;7.07;;;5.40;;
22034;SDS011;11181;51.002;4.356;2023-05-10T11:02:56;8.00;;;5.73;;
22034;SDS011;11181;51.002;4.356;2023-05-10T11:08:11;8.53;;;5.17;;
22034;SDS011;11181;51.002;4.356;2023-05-10T11:10:50;10.00;;;6.40;;
22034;SDS011;11181;51.002;4.356;2023-05-10T11:13:28;8.70;;;6.30;;
22034;SDS011;11181;51.002;4.356;2023-05-10T11:15:56;8.10;;;6.17;;
22034;SDS011;11181;51.002;4.356;2023-05-10T11:18:26;9.57;;;6.13;;
22034;SDS011;11181;51.002;4.356;2023-05-10T11:20:55;9.50;;;6.30;;
22034;SDS011;11181;51.002;4.356;2023-05-10T11:23:28;6.43;;;5.27;;
22034;SDS011;11181;51.002;4.356;2023-05-10T11:25:56;9.33;;;6.20;;
22034;SDS011;11181;51.002;4.356;2023-05-10T11:28:23;11.63;;;6.70;;
22034;SDS011;11181;51.002;4.356;2023-05-10T11:30:52;8.17;;;5.73;;
22034;SDS011;11181;51.002;4.356;2023-05-10T11:33:19;10.47;;;6.00;;
22034;SDS011;11181;51.002;4.356;2023-05-10T11:35:47;9.33;;;5.83;;
22034;SDS011;11181;51.002;4.356;2023-05-10T11:38:15;9.47;;;6.20;;
22034;SDS011;11181;51.002;4.356;2023-05-10T11:40:42;8.03;;;6.43;;
22034;SDS011;11181;51.002;4.356;2023-05-10T11:43:09;8.67;;;6.67;;
22034;SDS011;11181;51.002;4.356;2023-05-10T11:45:37;9.17;;;7.03;;
22034;SDS011;11181;51.002;4.356;2023-05-10T11:48:06;10.50;;;6.50;;
22034;SDS011;11181;51.002;4.356;2023-05-10T11:50:33;11.37;;;7.63;;
22034;SDS011;11181;51.002;4.356;2023-05-10T11:53:01;11.53;;;7.03;;
22034;SDS011;11181;51.002;4.356;2023-05-10T11:55:28;11.53;;;7.60;;
22034;SDS011;11181;51.002;4.356;2023-05-10T11:57:59;10.20;;;7.20;;
22034;SDS011;11181;51.002;4.356;2023-05-10T12:00:27;12.67;;;7.93;;
22034;SDS011;11181;51.002;4.356;2023-05-10T12:02:55;12.10;;;7.23;;
22034;SDS011;11181;51.002;4.356;2023-05-10T12:05:21;13.77;;;8.27;;
22034;SDS011;11181;51.002;4.356;2023-05-10T12:07:49;9.83;;;7.63;;
22034;SDS011;11181;51.002;4.356;2023-05-10T12:10:17;13.00;;;8.27;;
22034;SDS011;11181;51.002;4.356;2023-05-10T12:12:52;12.40;;;7.50;;
22034;SDS011;11181;51.002;4.356;2023-05-10T12:15:20;11.63;;;8.10;;
22034;SDS011;11181;51.002;4.356;2023-05-10T12:17:48;10.40;;;7.63;;
22034;SDS011;11181;51.002;4.356;2023-05-10T12:20:18;12.37;;;7.97;;
22034;SDS011;11181;51.002;4.356;2023-05-10T12:22:47;10.93;;;7.27;;
22034;SDS011;11181;51.002;4.356;2023-05-10T12:25:17;10.03;;;6.97;;
22034;SDS011;11181;51.002;4.356;2023-05-10T12:27:49;8.80;;;7.27;;
22034;SDS011;11181;51.002;4.356;2023-05-10T12:30:20;9.13;;;6.27;;
22034;SDS011;11181;51.002;4.356;2023-05-10T12:32:48;10.73;;;6.83;;
22034;SDS011;11181;51.002;4.356;2023-05-10T12:35:16;10.03;;;6.97;;
22034;SDS011;11181;51.002;4.356;2023-05-10T12:37:45;7.23;;;6.00;;
22034;SDS011;11181;51.002;4.356;2023-05-10T12:40:12;10.57;;;7.17;;
22034;SDS011;11181;51.002;4.356;2023-05-10T12:42:41;11.07;;;7.37;;
22034;SDS011;11181;51.002;4.356;2023-05-10T12:45:10;8.50;;;6.20;;
22034;SDS011;11181;51.002;4.356;2023-05-10T12:47:37;10.90;;;6.93;;
22034;SDS011;11181;51.002;4.356;2023-05-10T12:50:05;7.67;;;6.60;;
22034;SDS011;11181;51.002;4.356;2023-05-10T12:52:32;8.57;;;6.67;;
22034;SDS011;11181;51.002;4.356;2023-05-10T12:54:59;11.67;;;7.00;;
22034;SDS011;11181;51.002;4.356;2023-05-10T12:57:28;11.27;;;6.77;;
22034;SDS011;11181;51.002;4.356;2023-05-10T12:59:57;10.63;;;7.57;;
22034;SDS011;11181;51.002;4.356;2023-05-10T13:02:23;9.40;;;7.20;;
22034;SDS011;11181;51.002;4.356;2023-05-10T13:04:50;9.57;;;6.77;;
22034;SDS011;11181;51.002;4.356;2023-05-10T13:07:18;8.43;;;6.87;;
22034;SDS011;11181;51.002;4.356;2023-05-10T13:09:45;9.57;;;6.47;;
22034;SDS011;11181;51.002;4.356;2023-05-10T13:12:12;13.13;;;7.97;;
22034;SDS011;11181;51.002;4.356;2023-05-10T13:14:39;9.40;;;6.57;;
22034;SDS011;11181;51.002;4.356;2023-05-10T13:17:08;9.47;;;6.90;;
22034;SDS011;11181;51.002;4.356;2023-05-10T13:19:34;10.47;;;7.07;;
22034;SDS011;11181;51.002;4.356;2023-05-10T13:22:03;10.87;;;7.03;;
22034;SDS011;11181;51.002;4.356;2023-05-10T13:24:30;10.50;;;6.90;;
22034;SDS011;11181;51.002;4.356;2023-05-10T13:26:57;10.90;;;7.13;;
22034;SDS011;11181;51.002;4.356;2023-05-10T13:29:24;11.87;;;7.70;;
22034;SDS011;11181;51.002;4.356;2023-05-10T13:31:51;9.80;;;6.90;;
22034;SDS011;11181;51.002;4.356;2023-05-10T13:34:19;12.07;;;8.00;;
22034;SDS011;11181;51.002;4.356;2023-05-10T13:36:46;8.23;;;6.30;;
22034;SDS011;11181;51.002;4.356;2023-05-10T13:39:14;11.73;;;7.80;;
22034;SDS011;11181;51.002;4.356;2023-05-10T13:41:41;15.20;;;7.73;;
22034;SDS011;11181;51.002;4.356;2023-05-10T13:44:08;13.53;;;8.03;;
22034;SDS011;11181;51.002;4.356;2023-05-10T13:46:36;7.53;;;6.63;;
22034;SDS011;11181;51.002;4.356;2023-05-10T13:49:03;11.43;;;8.33;;
22034;SDS011;11181;51.002;4.356;2023-05-10T13:51:32;12.23;;;7.67;;
22034;SDS011;11181;51.002;4.356;2023-05-10T13:54:00;9.87;;;7.67;;
22034;SDS011;11181;51.002;4.356;2023-05-10T13:56:26;9.53;;;7.40;;
22034;SDS011;11181;51.002;4.356;2023-05-10T13:58:53;10.27;;;7.03;;
22034;SDS011;11181;51.002;4.356;2023-05-10T14:01:20;12.97;;;8.67;;
22034;SDS011;11181;51.002;4.356;2023-05-10T14:03:47;10.23;;;8.13;;
22034;SDS011;11181;51.002;4.356;2023-05-10T14:06:14;10.70;;;8.27;;
22034;SDS011;11181;51.002;4.356;2023-05-10T14:08:42;9.97;;;8.17;;
22034;SDS011;11181;51.002;4.356;2023-05-10T14:11:09;13.30;;;7.67;;
22034;SDS011;11181;51.002;4.356;2023-05-10T14:13:36;10.60;;;8.60;;
22034;SDS011;11181;51.002;4.356;2023-05-10T14:16:03;13.77;;;9.33;;
22034;SDS011;11181;51.002;4.356;2023-05-10T14:18:30;10.13;;;8.60;;
22034;SDS011;11181;51.002;4.356;2023-05-10T14:20:57;15.87;;;9.93;;
22034;SDS011;11181;51.002;4.356;2023-05-10T14:23:24;11.63;;;9.57;;
22034;SDS011;11181;51.002;4.356;2023-05-10T14:25:54;11.77;;;8.80;;
22034;SDS011;11181;51.002;4.356;2023-05-10T14:28:21;17.27;;;9.90;;
22034;SDS011;11181;51.002;4.356;2023-05-10T14:30:50;11.13;;;9.37;;
22034;SDS011;11181;51.002;4.356;2023-05-10T14:33:16;13.07;;;9.13;;
22034;SDS011;11181;51.002;4.356;2023-05-10T14:35:44;12.63;;;9.50;;
22034;SDS011;11181;51.002;4.356;2023-05-10T14:38:11;14.37;;;10.13;;
22034;SDS011;11181;51.002;4.356;2023-05-10T14:40:38;13.40;;;9.27;;
22034;SDS011;11181;51.002;4.356;2023-05-10T14:43:06;12.43;;;9.30;;
22034;SDS011;11181;51.002;4.356;2023-05-10T14:45:33;14.17;;;10.27;;